createdAt,value
2018-06-18T00:00:45.520Z,17.06
2018-06-18T00:03:14.005Z,17.07
2018-06-18T00:05:42.488Z,17.08
2018-06-18T00:08:10.928Z,17.06
2018-06-18T00:10:39.357Z,17.07
2018-06-18T00:13:07.779Z,17.05
2018-06-18T00:15:36.185Z,17.04
2018-06-18T00:18:04.997Z,17.05
2018-06-18T00:20:33.492Z,17.07
2018-06-18T00:23:01.995Z,17.07
2018-06-18T00:25:30.442Z,17.09
2018-06-18T00:27:58.925Z,17.08
2018-06-18T00:30:27.447Z,17.06
2018-06-18T00:32:55.903Z,17.07
2018-06-18T00:35:24.375Z,17.08
2018-06-18T00:37:52.865Z,17.08
2018-06-18T00:40:21.279Z,17.06
2018-06-18T00:42:49.778Z,17.06
2018-06-18T00:45:18.612Z,17.05
2018-06-18T00:47:47.088Z,17.04
2018-06-18T00:50:15.578Z,17.04
2018-06-18T00:52:44.161Z,17.04
2018-06-18T00:55:22.573Z,17.03
2018-06-18T00:58:27.623Z,17.00
2018-06-18T01:00:56.076Z,16.97
2018-06-18T01:03:24.582Z,16.98
2018-06-18T01:05:53.189Z,16.98
2018-06-18T01:08:21.616Z,16.97
2018-06-18T01:10:50.116Z,16.98
2018-06-18T01:13:18.664Z,16.99
2018-06-18T01:15:47.260Z,16.97
2018-06-18T01:18:15.751Z,16.98
2018-06-18T01:20:44.167Z,16.98
2018-06-18T01:23:24.210Z,16.99
2018-06-18T01:25:52.666Z,16.97
2018-06-18T01:28:21.200Z,16.97
2018-06-18T01:30:49.624Z,16.98
2018-06-18T01:33:18.122Z,17.01
2018-06-18T01:35:46.695Z,17.00
2018-06-18T01:38:15.193Z,17.00
2018-06-18T01:40:43.662Z,16.97
2018-06-18T01:43:12.148Z,16.98
2018-06-18T01:45:40.693Z,16.96
2018-06-18T01:48:09.211Z,16.94
2018-06-18T01:50:37.754Z,16.92
2018-06-18T01:53:06.601Z,16.91
2018-06-18T01:56:01.822Z,16.89
2018-06-18T01:58:30.269Z,16.86
2018-06-18T02:00:58.763Z,16.87
2018-06-18T02:03:36.046Z,16.86
2018-06-18T02:06:04.526Z,16.84
2018-06-18T02:08:33.008Z,16.81
2018-06-18T02:11:01.483Z,16.79
2018-06-18T02:13:29.933Z,16.77
2018-06-18T02:15:58.517Z,16.78
2018-06-18T02:18:26.944Z,16.76
2018-06-18T02:20:55.672Z,16.75
2018-06-18T02:23:24.222Z,16.73
2018-06-18T02:25:52.682Z,16.72
2018-06-18T02:28:26.412Z,16.74
2018-06-18T02:31:00.169Z,16.71
2018-06-18T02:33:34.034Z,16.72
2018-06-18T02:36:07.954Z,16.70
2018-06-18T02:38:41.809Z,16.69
2018-06-18T02:41:10.336Z,16.69
2018-06-18T02:43:38.786Z,16.70
2018-06-18T02:46:07.342Z,16.71
2018-06-18T02:48:35.870Z,16.69
2018-06-18T02:51:09.260Z,16.68
2018-06-18T02:53:37.754Z,16.70
2018-06-18T02:56:07.246Z,16.69
2018-06-18T02:58:35.738Z,16.70
2018-06-18T03:01:04.204Z,16.70
2018-06-18T03:03:33.905Z,16.70
2018-06-18T03:06:02.413Z,16.69
2018-06-18T03:08:30.863Z,16.72
2018-06-18T03:10:59.306Z,16.72
2018-06-18T03:13:27.861Z,16.70
2018-06-18T03:15:56.324Z,16.67
2018-06-18T03:18:29.996Z,16.67
2018-06-18T03:21:03.801Z,16.66
2018-06-18T03:23:37.629Z,16.67
2018-06-18T03:26:11.284Z,16.68
2018-06-18T03:28:45.169Z,16.68
2018-06-18T03:31:13.604Z,16.67
2018-06-18T03:33:42.107Z,16.68
2018-06-18T03:36:10.599Z,16.69
2018-06-18T03:38:39.137Z,16.71
2018-06-18T03:41:08.153Z,16.72
2018-06-18T03:43:40.245Z,16.72
2018-06-18T03:46:08.737Z,16.69
2018-06-18T03:48:37.308Z,16.66
2018-06-18T03:51:05.845Z,16.61
2018-06-18T03:53:34.480Z,16.55
2018-06-18T03:56:02.984Z,16.55
2018-06-18T03:58:31.535Z,16.56
2018-06-18T04:01:16.652Z,16.59
2018-06-18T04:03:51.032Z,16.64
2018-06-18T04:06:24.909Z,16.68
2018-06-18T04:08:58.733Z,16.71
2018-06-18T04:11:32.763Z,16.73
2018-06-18T04:14:01.680Z,16.76
2018-06-18T04:16:30.253Z,16.82
2018-06-18T04:18:58.731Z,16.87
2018-06-18T04:21:27.201Z,16.96
2018-06-18T04:23:55.689Z,17.06
2018-06-18T04:26:24.217Z,17.17
2018-06-18T04:28:52.748Z,17.26
2018-06-18T04:31:21.238Z,17.31
2018-06-18T04:34:34.312Z,17.34
2018-06-18T04:37:02.741Z,17.33
2018-06-18T04:39:31.222Z,17.34
2018-06-18T04:42:05.099Z,17.36
2018-06-18T04:44:38.954Z,17.41
2018-06-18T04:47:12.676Z,17.41
2018-06-18T04:49:46.532Z,17.41
2018-06-18T04:52:15.096Z,17.47
2018-06-18T04:54:43.605Z,17.48
2018-06-18T04:57:12.122Z,17.49
2018-06-18T04:59:45.715Z,17.50
2018-06-18T05:02:14.215Z,17.48
2018-06-18T05:04:42.687Z,17.49
2018-06-18T05:07:11.169Z,17.50
2018-06-18T05:09:53.949Z,17.51
2018-06-18T05:12:22.552Z,17.54
2018-06-18T05:14:51.484Z,17.63
2018-06-18T05:17:20.021Z,17.69
2018-06-18T05:19:48.508Z,17.77
2018-06-18T05:22:19.544Z,17.83
2018-06-18T05:24:49.357Z,17.86
2018-06-18T05:27:18.047Z,17.90
2018-06-18T05:29:46.938Z,17.97
2018-06-18T05:32:15.466Z,17.99
2018-06-18T05:34:44.013Z,18.04
2018-06-18T05:37:15.782Z,18.08
2018-06-18T05:39:44.231Z,18.19
2018-06-18T05:42:12.749Z,18.26
2018-06-18T05:44:41.305Z,18.31
2018-06-18T05:47:09.772Z,18.36
2018-06-18T05:49:38.282Z,18.38
2018-06-18T05:52:06.896Z,18.37
2018-06-18T05:54:35.426Z,18.40
2018-06-18T05:57:03.967Z,18.47
2018-06-18T05:59:32.389Z,18.62
2018-06-18T06:02:00.889Z,18.82
2018-06-18T06:04:29.376Z,18.91
2018-06-18T06:06:57.861Z,18.95
2018-06-18T06:09:26.372Z,18.96
2018-06-18T06:11:54.844Z,19.00
2018-06-18T06:14:23.262Z,18.97
2018-06-18T06:16:51.757Z,18.99
2018-06-18T06:19:20.309Z,18.95
2018-06-18T06:21:48.831Z,18.96
2018-06-18T06:24:17.315Z,18.91
2018-06-18T06:26:45.773Z,18.91
2018-06-18T06:29:14.262Z,18.86
2018-06-18T06:31:42.756Z,18.88
2018-06-18T06:34:11.320Z,18.89
2018-06-18T06:36:40.251Z,18.90
2018-06-18T06:39:10.468Z,18.97
2018-06-18T06:41:40.074Z,19.05
2018-06-18T06:44:08.550Z,19.13
2018-06-18T06:46:36.985Z,19.18
2018-06-18T06:49:05.521Z,19.18
2018-06-18T06:51:34.098Z,19.25
2018-06-18T06:54:02.580Z,19.38
2018-06-18T06:56:31.059Z,19.34
2018-06-18T06:58:59.543Z,19.29
2018-06-18T07:01:28.003Z,19.40
2018-06-18T07:03:56.405Z,19.49
2018-06-18T07:06:24.884Z,19.58
2018-06-18T07:08:53.482Z,19.65
2018-06-18T07:11:22.020Z,19.72
2018-06-18T07:13:50.631Z,19.76
2018-06-18T07:16:19.075Z,19.75
2018-06-18T07:18:47.712Z,19.85
2018-06-18T07:21:16.173Z,20.00
2018-06-18T07:23:44.610Z,20.00
2018-06-18T07:26:13.157Z,19.99
2018-06-18T07:28:41.644Z,20.06
2018-06-18T07:31:10.145Z,20.09
2018-06-18T07:33:38.582Z,20.17
2018-06-18T07:36:07.026Z,20.28
2018-06-18T07:38:35.613Z,20.42
2018-06-18T07:41:04.025Z,20.46
2018-06-18T07:43:32.551Z,20.41
2018-06-18T07:46:01.046Z,20.37
2018-06-18T07:48:29.474Z,20.47
2018-06-18T07:50:57.958Z,20.49
2018-06-18T07:53:26.400Z,20.48
2018-06-18T07:55:55.067Z,20.50
2018-06-18T07:58:23.532Z,20.41
2018-06-18T08:00:51.994Z,20.27
2018-06-18T08:03:24.274Z,20.22
2018-06-18T08:05:52.675Z,20.17
2018-06-18T08:08:21.119Z,20.03
2018-06-18T08:10:49.537Z,19.93
2018-06-18T08:13:17.951Z,19.90
2018-06-18T08:15:46.348Z,19.89
2018-06-18T08:18:14.784Z,19.93
2018-06-18T08:20:43.198Z,20.11
2018-06-18T08:23:26.717Z,20.31
2018-06-18T08:25:55.260Z,20.56
2018-06-18T08:28:23.713Z,20.72
2018-06-18T08:30:52.221Z,20.93
2018-06-18T08:33:20.801Z,21.07
2018-06-18T08:35:49.307Z,21.16
2018-06-18T08:38:17.741Z,21.16
2018-06-18T08:40:46.244Z,21.12
2018-06-18T08:43:14.728Z,21.15
2018-06-18T08:45:43.145Z,21.20
2018-06-18T08:48:14.512Z,21.18
2018-06-18T08:50:48.127Z,21.05
2018-06-18T08:53:21.931Z,20.84
2018-06-18T08:55:55.734Z,20.72
2018-06-18T08:58:29.534Z,20.75
2018-06-18T09:01:03.140Z,20.79
2018-06-18T09:03:35.793Z,20.82
2018-06-18T09:06:04.342Z,20.87
2018-06-18T09:08:39.955Z,20.91
2018-06-18T09:11:08.489Z,21.02
2018-06-18T09:13:37.268Z,21.22
2018-06-18T09:16:05.958Z,21.27
2018-06-18T09:18:34.420Z,21.25
2018-06-18T09:21:02.908Z,21.32
2018-06-18T09:23:31.386Z,21.36
2018-06-18T09:26:00.618Z,21.44
2018-06-18T09:28:30.409Z,21.65
2018-06-18T09:30:59.121Z,21.84
2018-06-18T09:33:27.597Z,21.87
2018-06-18T09:35:57.019Z,22.03
2018-06-18T09:38:25.550Z,22.16
2018-06-18T09:40:53.967Z,22.20
2018-06-18T09:43:22.514Z,22.23
2018-06-18T09:45:51.056Z,22.41
2018-06-18T09:48:19.568Z,22.58
2018-06-18T09:50:53.378Z,22.58
2018-06-18T09:53:27.416Z,22.38
2018-06-18T09:56:01.271Z,22.12
2018-06-18T09:58:34.970Z,22.04
2018-06-18T10:01:14.073Z,21.90
2018-06-18T10:03:42.626Z,21.81
2018-06-18T10:06:18.784Z,21.75
2018-06-18T10:08:47.403Z,21.78
2018-06-18T10:11:15.767Z,21.85
2018-06-18T10:13:44.337Z,21.91
2018-06-18T10:16:13.093Z,22.05
2018-06-18T10:18:41.542Z,22.14
2018-06-18T10:21:10.006Z,22.15
2018-06-18T10:23:38.564Z,22.32
2018-06-18T10:26:07.094Z,22.44
2018-06-18T10:28:36.756Z,22.48
2018-06-18T10:31:05.254Z,22.32
2018-06-18T10:33:39.013Z,22.08
2018-06-18T10:36:12.822Z,22.01
2018-06-18T10:38:46.629Z,22.09
2018-06-18T10:41:20.569Z,22.12
2018-06-18T10:43:49.037Z,21.99
2018-06-18T10:46:17.775Z,21.87
2018-06-18T10:48:47.857Z,21.77
2018-06-18T10:51:16.455Z,21.76
2018-06-18T10:53:45.074Z,21.94
2018-06-18T10:56:13.517Z,22.00
2018-06-18T10:58:41.978Z,21.99
2018-06-18T11:01:13.538Z,21.76
2018-06-18T11:03:42.123Z,21.57
2018-06-18T11:06:16.008Z,21.53
2018-06-18T11:08:44.619Z,21.52
2018-06-18T11:11:13.189Z,21.45
2018-06-18T11:13:41.697Z,21.37
2018-06-18T11:16:10.277Z,21.28
2018-06-18T11:18:43.874Z,21.15
2018-06-18T11:21:17.678Z,21.00
2018-06-18T11:23:51.500Z,20.60
2018-06-18T11:26:25.424Z,20.23
2018-06-18T11:28:54.228Z,20.13
2018-06-18T11:31:22.728Z,20.13
2018-06-18T11:33:51.231Z,20.13
2018-06-18T11:36:19.784Z,20.27
2018-06-18T11:38:48.430Z,20.48
2018-06-18T11:41:24.803Z,20.70
2018-06-18T11:43:53.312Z,20.69
2018-06-18T11:46:21.988Z,20.77
2018-06-18T11:48:50.536Z,20.82
2018-06-18T11:51:18.950Z,21.03
2018-06-18T11:53:47.718Z,21.28
2018-06-18T11:56:16.237Z,21.37
2018-06-18T11:58:50.184Z,21.30
2018-06-18T12:01:23.905Z,21.12
2018-06-18T12:03:57.659Z,20.91
2018-06-18T12:06:35.040Z,20.78
2018-06-18T12:09:08.710Z,20.54
2018-06-18T12:11:37.262Z,20.40
2018-06-18T12:14:13.049Z,20.35
2018-06-18T12:16:41.632Z,20.22
2018-06-18T12:19:10.101Z,20.02
2018-06-18T12:21:38.572Z,19.71
2018-06-18T12:24:07.961Z,19.45
2018-06-18T12:26:36.690Z,19.28
2018-06-18T12:29:05.388Z,19.23
2018-06-18T12:31:33.802Z,19.22
2018-06-18T12:34:02.418Z,19.18
2018-06-18T12:36:30.939Z,19.39
2018-06-18T12:38:59.488Z,19.66
2018-06-18T12:41:41.481Z,19.79
2018-06-18T12:44:09.965Z,20.00
2018-06-18T12:46:43.924Z,20.07
2018-06-18T12:49:17.618Z,20.16
2018-06-18T12:52:04.590Z,20.33
2018-06-18T12:54:38.367Z,20.42
2018-06-18T12:57:08.249Z,20.64
2018-06-18T12:59:36.793Z,20.68
2018-06-18T13:02:23.218Z,20.84
2018-06-18T13:04:56.310Z,21.06
2018-06-18T13:07:25.809Z,21.27
2018-06-18T13:09:54.493Z,21.58
2018-06-18T13:12:22.944Z,21.94
2018-06-18T13:14:51.444Z,22.07
2018-06-18T13:17:19.934Z,22.04
2018-06-18T13:19:48.404Z,21.94
2018-06-18T13:22:16.900Z,22.00
2018-06-18T13:24:45.389Z,22.07
2018-06-18T13:27:13.863Z,21.98
2018-06-18T13:29:42.345Z,21.88
2018-06-18T13:32:10.829Z,21.61
2018-06-18T13:34:39.305Z,21.41
2018-06-18T13:37:12.955Z,21.51
2018-06-18T13:39:46.830Z,21.87
2018-06-18T13:43:20.665Z,22.17
2018-06-18T13:46:55.474Z,22.24
2018-06-18T13:49:28.089Z,21.87
2018-06-18T13:51:56.773Z,21.52
2018-06-18T13:54:40.685Z,21.30
2018-06-18T13:57:09.256Z,21.05
2018-06-18T13:59:37.830Z,20.90
2018-06-18T14:02:06.360Z,20.89
2018-06-18T14:04:34.904Z,21.02
2018-06-18T14:07:03.478Z,21.40
2018-06-18T14:09:31.983Z,21.67
2018-06-18T14:12:00.543Z,21.81
2018-06-18T14:14:29.217Z,21.78
2018-06-18T14:16:57.728Z,21.59
2018-06-18T14:19:31.542Z,21.44
2018-06-18T14:22:00.129Z,21.27
2018-06-18T14:24:28.597Z,21.15
2018-06-18T14:26:57.080Z,21.07
2018-06-18T14:29:30.862Z,21.11
2018-06-18T14:31:59.923Z,21.28
2018-06-18T14:34:33.671Z,21.61
2018-06-18T14:37:07.362Z,21.92
2018-06-18T14:39:41.046Z,22.12
2018-06-18T14:42:09.952Z,22.16
2018-06-18T14:44:39.077Z,22.12
2018-06-18T14:47:07.577Z,21.98
2018-06-18T14:49:36.047Z,21.84
2018-06-18T15:12:14.505Z,22.46
2018-06-18T15:14:44.212Z,22.39
2018-06-18T15:17:12.674Z,22.23
2018-06-18T15:19:41.201Z,22.03
2018-06-18T15:22:09.820Z,21.81
2018-06-18T15:24:51.449Z,21.70
2018-06-18T15:47:27.614Z,22.83
2018-06-18T15:49:56.173Z,22.93
2018-06-18T15:52:24.708Z,23.31
2018-06-18T15:54:53.281Z,23.29
2018-06-18T15:57:21.766Z,23.17
2018-06-18T16:20:01.033Z,23.72
2018-06-18T16:22:29.505Z,23.63
2018-06-18T16:24:58.044Z,23.59
2018-06-18T16:27:26.791Z,23.26
2018-06-18T16:29:55.392Z,23.08
2018-06-18T16:32:23.869Z,23.34
2018-06-18T16:34:53.636Z,23.58
2018-06-18T16:37:22.061Z,23.49
2018-06-18T16:39:50.755Z,23.15
2018-06-18T17:12:30.798Z,22.74
2018-06-18T17:15:00.399Z,22.66
2018-06-18T17:17:28.871Z,22.76
2018-06-18T17:19:57.382Z,22.71
2018-06-18T17:22:25.841Z,22.43
2018-06-18T17:24:54.400Z,22.15
2018-06-18T17:27:23.176Z,22.04
2018-06-18T17:29:51.671Z,21.99
2018-06-18T17:32:20.272Z,21.94
2018-06-18T17:34:48.757Z,21.96
2018-06-18T17:37:17.262Z,21.94
2018-06-18T17:39:46.270Z,21.83
2018-06-18T18:12:40.157Z,20.89
2018-06-18T18:15:08.794Z,20.83
2018-06-18T18:44:34.385Z,20.19
2018-06-18T18:47:02.861Z,20.19
2018-06-18T18:49:31.380Z,20.17
2018-06-18T18:52:01.091Z,20.12
2018-06-18T18:55:40.564Z,20.08
2018-06-18T18:58:21.404Z,20.03
2018-06-18T19:00:50.555Z,20.06
2018-06-18T19:03:21.148Z,20.04
2018-06-18T19:05:50.742Z,20.00
2018-06-18T19:08:24.460Z,19.94
2018-06-18T19:10:53.172Z,19.85
2018-06-18T19:13:31.667Z,19.74
2018-06-18T19:43:26.474Z,19.31
2018-06-18T19:45:58.465Z,19.19
2018-06-18T23:03:01.718Z,16.20
2018-06-18T23:05:30.201Z,16.23
2018-06-18T23:07:58.656Z,16.23
2018-06-18T23:10:27.181Z,16.18
2018-06-18T23:12:55.754Z,16.12
2018-06-18T23:15:24.240Z,16.11
2018-06-18T23:17:52.830Z,16.09
2018-06-18T23:20:21.284Z,16.06
2018-06-18T23:22:49.800Z,16.05
2018-06-18T23:25:18.499Z,16.03
2018-06-18T23:27:47.575Z,16.04
2018-06-18T23:30:15.995Z,16.06
2018-06-18T23:32:44.527Z,16.03
2018-06-18T23:35:12.948Z,16.06
2018-06-18T23:37:41.364Z,16.04
2018-06-18T23:40:10.498Z,16.02
2018-06-18T23:42:38.971Z,16.01
2018-06-18T23:45:07.448Z,15.98
2018-06-18T23:47:36.287Z,15.97
2018-06-18T23:50:04.871Z,15.97
